Wing, Illinois
Current Conditions -  °F | °C
As of 7:15 PM on Saturday 22 Nov 2014 (Local Time) from KPNT Reporting Station
Overcast Overcast  
Wind Chill: 53°   Ceiling: 2900
Heat Index: 53°   Visibility: 10mi
Dew Point: 48°   Wind: 15mph
Humidity: 84%   Direction: 190°S
Pressure: 29.9"   Gusts: 21mph
Location:  40.7521°N, 88.412°W
Report Text: KPNT 230115Z AUTO 19013G18KT 10SM SCT018 BKN029 OVC034 11/09 A2990 RMK AO2 T01140087
Loading
Personal Weather Stations






























Interactive Weather Map New forecast layout! Learn more

10-Day Weather Forecast

Advertisements
Track Severe Weather on mobile